Time;durP1;ratioP1;P1;durP2;ratioP2;P2;SDS_P1;SDS_P2;PMS_P1;PMS_P2;Temp;Humidity;BMP_temperature;BMP_pressure;BME280_temperature;BME280_humidity;BME280_pressure;Samples;Min_cycle;Max_cycle;Signal;HPM_P1;HPM_P2
2024/02/25 00:02:05;;;;;;;;;;;3.00;99.90;;;;;;5079383;28;19924;-64
2024/02/25 00:04:37;;;;;;;;;;;3.00;99.90;;;;;;5076374;28;20034;-64
2024/02/25 00:07:06;;;;;;;;;;;3.00;99.90;;;;;;5076722;28;19935;-64
2024/02/25 00:09:33;;;;;;;;;;;3.00;99.90;;;;;;5076992;28;20447;-63
2024/02/25 00:12:05;;;;;;;;;;;3.00;99.90;;;;;;5081335;28;19924;-63
2024/02/25 00:14:37;;;;;;;;;;;3.00;99.90;;;;;;5077937;28;19925;-63
2024/02/25 00:17:09;;;;;;;;;;;3.00;99.90;;;;;;5074938;28;19925;-64
2024/02/25 00:19:41;;;;;;;;;;;3.00;99.90;;;;;;5079882;28;19930;-63
2024/02/25 00:22:12;;;;;;;;;;;3.00;99.90;;;;;;5075663;28;20296;-63
2024/02/25 00:24:44;;;;;;;;;;;3.00;99.90;;;;;;5078529;28;20330;-63
2024/02/25 00:27:16;;;;;;;;;;;3.00;99.90;;;;;;5082916;28;19925;-63
2024/02/25 00:29:43;;;;;;;;;;;3.00;99.90;;;;;;5077266;28;19935;-63
2024/02/25 00:32:15;;;;;;;;;;;2.90;99.90;;;;;;5073190;28;19928;-63
2024/02/25 00:34:46;;;;;;;;;;;3.00;99.90;;;;;;5095958;28;19978;-63
2024/02/25 00:37:18;;;;;;;;;;;3.00;99.90;;;;;;5082241;28;20442;-64
2024/02/25 00:39:50;;;;;;;;;;;3.00;99.90;;;;;;5078687;28;19964;-63
2024/02/25 00:42:16;;;;;;;;;;;3.00;99.90;;;;;;5082192;28;19928;-63
2024/02/25 00:44:49;;;;;;;;;;;3.00;99.90;;;;;;5078593;28;20019;-64
2024/02/25 00:47:20;;;;;;;;;;;3.00;99.90;;;;;;5074903;28;20023;-63
2024/02/25 00:49:52;;;;;;;;;;;3.10;99.90;;;;;;5084429;28;19924;-63
2024/02/25 00:52:25;;;;;;;;;;;3.10;99.90;;;;;;5078658;28;19931;-63
2024/02/25 00:54:56;;;;;;;;;;;3.10;99.90;;;;;;5079299;28;19947;-63
2024/02/25 00:57:28;;;;;;;;;;;3.10;99.90;;;;;;5083001;28;20009;-63
2024/02/25 01:00:00;;;;;;;;;;;3.10;99.90;;;;;;5081231;28;19925;-63
2024/02/25 01:02:32;;;;;;;;;;;3.10;99.90;;;;;;5082339;28;19954;-63
2024/02/25 01:05:03;;;;;;;;;;;3.10;99.90;;;;;;5087407;28;19929;-63
2024/02/25 01:07:38;;;;;;;;;;;3.10;99.90;;;;;;5082120;28;19930;-63
2024/02/25 01:10:10;;;;;;;;;;;3.00;99.90;;;;;;5082606;28;20021;-63
2024/02/25 01:12:42;;;;;;;;;;;3.00;99.90;;;;;;5080735;28;19976;-63
2024/02/25 01:15:13;;;;;;;;;;;3.00;99.90;;;;;;5084838;28;21512;-63
2024/02/25 01:17:40;;;;;;;;;;;2.90;99.90;;;;;;5075993;28;20019;-63
2024/02/25 01:20:12;;;;;;;;;;;2.90;99.90;;;;;;5079379;28;19928;-63
2024/02/25 01:22:44;;;;;;;;;;;2.90;99.90;;;;;;5079375;28;19939;-63
2024/02/25 01:25:16;;;;;;;;;;;2.80;99.90;;;;;;5077456;28;19931;-63
2024/02/25 01:27:48;;;;;;;;;;;2.90;99.90;;;;;;5079684;28;19935;-63
2024/02/25 01:30:19;;;;;;;;;;;2.80;99.90;;;;;;5077912;28;19931;-64
2024/02/25 01:32:51;;;;;;;;;;;2.80;99.90;;;;;;5080068;28;19938;-63
2024/02/25 01:35:23;;;;;;;;;;;2.80;99.90;;;;;;5079627;28;19989;-63
2024/02/25 01:37:55;;;;;;;;;;;2.90;99.90;;;;;;5079516;28;20687;-62
2024/02/25 01:40:26;;;;;;;;;;;2.90;99.90;;;;;;5079360;28;20008;-64
2024/02/25 01:43:10;;;;;;;;;;;2.80;99.90;;;;;;5087060;28;19934;-64
2024/02/25 01:45:37;;;;;;;;;;;2.90;99.90;;;;;;5086162;28;19928;-64
2024/02/25 01:48:09;;;;;;;;;;;2.90;99.90;;;;;;5085910;28;19956;-64
2024/02/25 01:50:36;;;;;;;;;;;2.90;99.90;;;;;;5087524;28;20441;-64
2024/02/25 01:53:08;;;;;;;;;;;2.90;99.90;;;;;;5085398;28;19978;-63
2024/02/25 01:55:42;;;;;;;;;;;3.00;99.90;;;;;;5087191;28;19924;-63
2024/02/25 01:58:14;;;;;;;;;;;3.00;99.90;;;;;;5086715;28;19929;-63
2024/02/25 02:00:47;;;;;;;;;;;3.00;99.90;;;;;;5086236;28;20557;-64
2024/02/25 02:03:19;;;;;;;;;;;3.00;99.90;;;;;;5087370;28;19928;-64
2024/02/25 02:05:51;;;;;;;;;;;3.10;99.90;;;;;;5083818;28;19931;-63
2024/02/25 02:08:23;;;;;;;;;;;3.00;99.90;;;;;;5086963;28;20029;-63
2024/02/25 02:10:55;;;;;;;;;;;3.10;99.90;;;;;;5073975;28;19928;-64
2024/02/25 02:13:27;;;;;;;;;;;3.00;99.90;;;;;;5060117;28;20471;-64
2024/02/25 02:15:58;;;;;;;;;;;3.00;99.90;;;;;;5077796;28;19925;-64
2024/02/25 02:18:30;;;;;;;;;;;3.00;99.90;;;;;;5076830;28;20404;-64
2024/02/25 02:21:02;;;;;;;;;;;3.00;99.90;;;;;;5082781;28;19935;-64
2024/02/25 02:23:34;;;;;;;;;;;3.10;99.90;;;;;;5080369;28;19928;-64
2024/02/25 02:26:06;;;;;;;;;;;3.10;99.90;;;;;;5078113;28;20406;-64
2024/02/25 02:28:37;;;;;;;;;;;3.10;99.90;;;;;;5091823;28;19950;-64
2024/02/25 02:31:09;;;;;;;;;;;3.00;99.90;;;;;;5085481;28;19935;-64
2024/02/25 02:33:40;;;;;;;;;;;3.00;99.90;;;;;;5078813;28;19924;-64
2024/02/25 02:36:12;;;;;;;;;;;3.00;99.90;;;;;;5084342;28;20392;-64
2024/02/25 02:38:43;;;;;;;;;;;3.00;99.90;;;;;;5079381;28;19929;-64
2024/02/25 02:41:19;;;;;;;;;;;3.10;99.90;;;;;;5076283;28;19928;-64
2024/02/25 02:43:45;;;;;;;;;;;3.10;99.90;;;;;;5073925;28;19933;-64
2024/02/25 02:46:17;;;;;;;;;;;3.10;99.90;;;;;;5080395;28;19960;-64
2024/02/25 02:48:49;;;;;;;;;;;3.10;99.90;;;;;;5078164;28;19932;-62
2024/02/25 02:51:21;;;;;;;;;;;3.10;99.90;;;;;;5081005;28;19936;-64
2024/02/25 02:53:52;;;;;;;;;;;3.10;99.90;;;;;;5078461;28;19932;-64
2024/02/25 02:56:24;;;;;;;;;;;3.20;99.90;;;;;;5077837;28;19925;-64
2024/02/25 02:58:56;;;;;;;;;;;3.10;99.90;;;;;;5077588;28;19924;-63
2024/02/25 03:01:28;;;;;;;;;;;3.10;99.90;;;;;;5079150;28;19932;-64
2024/02/25 03:03:59;;;;;;;;;;;3.10;99.90;;;;;;5084848;28;19924;-64
2024/02/25 03:06:31;;;;;;;;;;;3.10;99.90;;;;;;5061225;28;19924;-64
2024/02/25 03:09:03;;;;;;;;;;;3.00;99.90;;;;;;5079090;28;19924;-64
2024/02/25 03:11:34;;;;;;;;;;;3.00;99.90;;;;;;5082677;28;19928;-63
2024/02/25 03:14:06;;;;;;;;;;;3.00;99.90;;;;;;5078208;28;20419;-64
2024/02/25 03:16:38;;;;;;;;;;;3.00;99.90;;;;;;5076823;28;20473;-63
2024/02/25 03:19:10;;;;;;;;;;;2.90;99.90;;;;;;5077390;28;20023;-64
2024/02/25 03:21:42;;;;;;;;;;;2.90;99.90;;;;;;5078280;28;19964;-64
2024/02/25 03:24:10;;;;;;;;;;;3.00;99.90;;;;;;5073837;28;19928;-64
2024/02/25 03:26:42;;;;;;;;;;;3.00;99.90;;;;;;5079700;28;19967;-64
2024/02/25 03:29:09;;;;;;;;;;;3.00;99.90;;;;;;5069216;28;19925;-64
2024/02/25 03:31:41;;;;;;;;;;;3.00;99.90;;;;;;5076857;28;19925;-64
2024/02/25 03:34:14;;;;;;;;;;;3.00;99.90;;;;;;5077700;28;19929;-64
2024/02/25 03:36:46;;;;;;;;;;;2.90;99.90;;;;;;5076224;28;19939;-64
2024/02/25 03:39:17;;;;;;;;;;;3.00;99.90;;;;;;5079220;28;19935;-64
2024/02/25 03:41:49;;;;;;;;;;;3.00;99.90;;;;;;5076288;28;19931;-64
2024/02/25 03:44:21;;;;;;;;;;;3.00;99.90;;;;;;5078238;28;20023;-64
2024/02/25 03:46:52;;;;;;;;;;;3.10;99.90;;;;;;5078086;28;19924;-64
2024/02/25 03:49:24;;;;;;;;;;;3.20;99.90;;;;;;5081116;28;20376;-64
2024/02/25 03:51:56;;;;;;;;;;;3.20;99.90;;;;;;5088014;28;19964;-63
2024/02/25 03:54:28;;;;;;;;;;;3.10;99.90;;;;;;5083025;28;19928;-64
2024/02/25 03:56:59;;;;;;;;;;;3.10;99.90;;;;;;5093112;28;19930;-64
2024/02/25 03:59:32;;;;;;;;;;;3.20;99.90;;;;;;5088584;28;19923;-64
2024/02/25 04:02:04;;;;;;;;;;;3.20;99.90;;;;;;5095769;28;19928;-64
2024/02/25 04:04:35;;;;;;;;;;;3.20;99.90;;;;;;5089134;28;19977;-64
2024/02/25 04:07:07;;;;;;;;;;;3.10;99.90;;;;;;5088570;28;19924;-64
2024/02/25 04:09:41;;;;;;;;;;;3.10;99.90;;;;;;5083806;28;20388;-64
2024/02/25 04:12:13;;;;;;;;;;;3.00;99.90;;;;;;5090174;28;20008;-64
2024/02/25 04:14:45;;;;;;;;;;;3.00;99.90;;;;;;5085233;28;19928;-64
2024/02/25 04:17:18;;;;;;;;;;;3.00;99.90;;;;;;5087328;28;20007;-64
2024/02/25 04:19:44;;;;;;;;;;;3.00;99.90;;;;;;5086942;28;19931;-64
2024/02/25 04:22:16;;;;;;;;;;;3.00;99.90;;;;;;5091105;28;19983;-64
2024/02/25 04:24:48;;;;;;;;;;;3.00;99.90;;;;;;5093813;28;19927;-63
2024/02/25 04:27:20;;;;;;;;;;;3.00;99.90;;;;;;5092608;28;19934;-64
2024/02/25 04:29:52;;;;;;;;;;;3.00;99.90;;;;;;5088191;28;19934;-64
2024/02/25 04:32:24;;;;;;;;;;;3.00;99.90;;;;;;5084400;28;19935;-64
2024/02/25 04:34:55;;;;;;;;;;;3.00;99.90;;;;;;5092188;28;20433;-64
2024/02/25 04:37:27;;;;;;;;;;;3.00;99.90;;;;;;5087693;28;19931;-64
2024/02/25 04:39:54;;;;;;;;;;;2.90;99.90;;;;;;5087453;28;20384;-62
2024/02/25 04:42:26;;;;;;;;;;;2.90;99.90;;;;;;5086452;28;20649;-64
2024/02/25 04:44:58;;;;;;;;;;;2.90;99.90;;;;;;5091015;28;19932;-63
2024/02/25 04:47:31;;;;;;;;;;;2.90;99.90;;;;;;5083044;28;20006;-64
2024/02/25 04:50:03;;;;;;;;;;;2.90;99.90;;;;;;5091494;28;19963;-64
2024/02/25 04:52:35;;;;;;;;;;;2.90;99.90;;;;;;5085220;28;19928;-64
2024/02/25 04:55:07;;;;;;;;;;;2.80;99.90;;;;;;5083405;28;19924;-64
2024/02/25 04:57:39;;;;;;;;;;;2.70;99.90;;;;;;5087748;28;19927;-64
2024/02/25 05:00:11;;;;;;;;;;;2.70;99.90;;;;;;5090522;28;20404;-64
2024/02/25 05:02:43;;;;;;;;;;;2.70;99.90;;;;;;5089726;28;19923;-64
2024/02/25 05:05:14;;;;;;;;;;;2.70;99.90;;;;;;5080968;28;19928;-63
2024/02/25 05:07:46;;;;;;;;;;;2.60;99.90;;;;;;5081450;28;20386;-64
2024/02/25 05:10:13;;;;;;;;;;;2.60;99.90;;;;;;5077096;28;19925;-64
2024/02/25 05:12:40;;;;;;;;;;;2.50;99.90;;;;;;5092844;28;20468;-64
2024/02/25 05:15:11;;;;;;;;;;;2.50;99.90;;;;;;5089275;28;19925;-64
2024/02/25 05:17:43;;;;;;;;;;;2.50;99.90;;;;;;5076901;28;19924;-64
2024/02/25 05:20:10;;;;;;;;;;;2.50;99.90;;;;;;5094140;28;20454;-64
2024/02/25 05:22:42;;;;;;;;;;;2.50;99.90;;;;;;5085063;28;20296;-64
2024/02/25 05:25:14;;;;;;;;;;;2.40;99.90;;;;;;5083506;28;19925;-64
2024/02/25 05:27:46;;;;;;;;;;;2.40;99.90;;;;;;5080790;28;19978;-62
2024/02/25 05:30:18;;;;;;;;;;;2.40;99.90;;;;;;5080298;28;19963;-63
2024/02/25 05:32:50;;;;;;;;;;;2.40;99.90;;;;;;5079297;28;19928;-64
2024/02/25 05:35:22;;;;;;;;;;;2.30;99.90;;;;;;5074360;28;19932;-64
2024/02/25 05:37:54;;;;;;;;;;;2.30;99.90;;;;;;5079968;28;20486;-65
2024/02/25 05:40:26;;;;;;;;;;;2.30;99.90;;;;;;5081840;28;19924;-64
2024/02/25 05:42:52;;;;;;;;;;;2.20;99.90;;;;;;5079751;28;19924;-69
2024/02/25 05:45:24;;;;;;;;;;;2.20;99.90;;;;;;5089629;28;20281;-62
2024/02/25 05:47:56;;;;;;;;;;;2.00;99.90;;;;;;5086898;28;19936;-64
2024/02/25 05:50:28;;;;;;;;;;;2.00;99.90;;;;;;5078130;28;19974;-62
2024/02/25 05:53:00;;;;;;;;;;;1.90;99.90;;;;;;5078639;28;19928;-64
2024/02/25 05:55:31;;;;;;;;;;;1.80;99.90;;;;;;5081357;28;19924;-64
2024/02/25 05:58:04;;;;;;;;;;;1.80;99.90;;;;;;5077728;28;19932;-64
2024/02/25 06:00:31;;;;;;;;;;;1.80;99.90;;;;;;5077473;28;19924;-64
2024/02/25 06:03:04;;;;;;;;;;;1.80;99.90;;;;;;5068861;28;19977;-64
2024/02/25 06:05:35;;;;;;;;;;;1.80;99.90;;;;;;5083087;28;19929;-64
2024/02/25 06:08:07;;;;;;;;;;;1.80;99.90;;;;;;5081204;28;19943;-64
2024/02/25 06:10:39;;;;;;;;;;;1.80;99.90;;;;;;5084699;28;19930;-62
2024/02/25 06:13:10;;;;;;;;;;;1.90;99.90;;;;;;5081613;28;20300;-64
2024/02/25 06:15:42;;;;;;;;;;;2.00;99.90;;;;;;5080384;28;19935;-64
2024/02/25 06:18:14;;;;;;;;;;;2.30;99.90;;;;;;5080337;28;19959;-64
2024/02/25 06:20:46;;;;;;;;;;;2.60;99.90;;;;;;5082607;28;19924;-64
2024/02/25 06:23:13;;;;;;;;;;;2.50;99.90;;;;;;5082204;28;19928;-64
2024/02/25 06:25:45;;;;;;;;;;;2.40;99.90;;;;;;5079828;28;19924;-64
2024/02/25 06:28:17;;;;;;;;;;;2.40;99.90;;;;;;5075156;28;20465;-64
2024/02/25 06:30:49;;;;;;;;;;;2.30;99.90;;;;;;5088823;28;20461;-64
2024/02/25 06:33:20;;;;;;;;;;;2.20;99.90;;;;;;5071048;28;19939;-64
2024/02/25 06:35:53;;;;;;;;;;;2.10;99.90;;;;;;5076108;28;19962;-64
2024/02/25 06:38:24;;;;;;;;;;;2.10;99.90;;;;;;5081098;28;19935;-64
2024/02/25 06:40:57;;;;;;;;;;;2.10;99.90;;;;;;5082447;28;20020;-64
2024/02/25 06:43:29;;;;;;;;;;;2.00;99.90;;;;;;5079228;28;20349;-64
2024/02/25 06:46:02;;;;;;;;;;;2.00;99.90;;;;;;5076691;28;20493;-64
2024/02/25 06:48:34;;;;;;;;;;;2.00;99.90;;;;;;5081293;28;19986;-64
2024/02/25 06:51:06;;;;;;;;;;;2.00;99.90;;;;;;5080427;28;20315;-64
2024/02/25 06:53:37;;;;;;;;;;;2.00;99.90;;;;;;5077342;28;19989;-64
2024/02/25 06:56:09;;;;;;;;;;;2.00;99.90;;;;;;5071940;28;20027;-64
2024/02/25 06:58:36;;;;;;;;;;;2.00;99.90;;;;;;5085093;28;19934;-64
2024/02/25 07:01:08;;;;;;;;;;;2.00;99.90;;;;;;5085195;28;20789;-64
2024/02/25 07:03:43;;;;;;;;;;;2.00;99.90;;;;;;5081627;28;19924;-64
2024/02/25 07:06:15;;;;;;;;;;;2.00;99.90;;;;;;5076290;28;20288;-64
2024/02/25 07:08:47;;;;;;;;;;;2.00;99.90;;;;;;5078590;28;19931;-64
2024/02/25 07:11:19;;;;;;;;;;;2.00;99.90;;;;;;5081549;28;19996;-64
2024/02/25 07:13:51;;;;;;;;;;;2.00;99.90;;;;;;5079031;28;19928;-64
2024/02/25 07:16:23;;;;;;;;;;;2.10;99.90;;;;;;5084688;28;19932;-64
2024/02/25 07:18:50;;;;;;;;;;;2.20;99.90;;;;;;5080256;28;19929;-64
2024/02/25 07:21:22;;;;;;;;;;;2.20;99.90;;;;;;5085746;28;19933;-64
2024/02/25 07:23:53;;;;;;;;;;;2.30;99.90;;;;;;5087458;28;20395;-64
2024/02/25 07:26:25;;;;;;;;;;;2.40;99.90;;;;;;5089211;28;19924;-64
2024/02/25 07:28:57;;;;;;;;;;;2.50;99.90;;;;;;5076552;28;19964;-64
2024/02/25 07:31:24;;;;;;;;;;;2.50;99.90;;;;;;5079835;28;19925;-64
2024/02/25 07:33:56;;;;;;;;;;;2.60;99.90;;;;;;5078442;28;20406;-64
2024/02/25 07:36:22;;;;;;;;;;;2.60;99.90;;;;;;5083531;28;19928;-64
2024/02/25 07:38:54;;;;;;;;;;;2.70;99.90;;;;;;5078622;28;19967;-64
2024/02/25 07:41:26;;;;;;;;;;;2.70;99.90;;;;;;5081693;28;19986;-64
2024/02/25 07:43:58;;;;;;;;;;;2.70;99.90;;;;;;5078205;28;19957;-64
2024/02/25 07:46:29;;;;;;;;;;;2.80;99.90;;;;;;5081295;28;19956;-64
2024/02/25 07:49:02;;;;;;;;;;;2.90;99.90;;;;;;5079418;28;19928;-64
2024/02/25 07:51:34;;;;;;;;;;;3.00;99.90;;;;;;5076739;28;20011;-64
2024/02/25 07:54:06;;;;;;;;;;;3.00;99.90;;;;;;5077076;28;20311;-64
2024/02/25 07:56:38;;;;;;;;;;;3.10;99.90;;;;;;5080227;28;19959;-64
2024/02/25 07:59:10;;;;;;;;;;;3.10;99.90;;;;;;5076342;28;19925;-64
2024/02/25 08:01:42;;;;;;;;;;;3.20;99.90;;;;;;5085749;28;20280;-64
2024/02/25 08:04:09;;;;;;;;;;;3.20;99.90;;;;;;5075482;28;19978;-64
2024/02/25 08:06:41;;;;;;;;;;;3.20;99.90;;;;;;5066466;28;20027;-64
2024/02/25 08:09:13;;;;;;;;;;;3.30;99.90;;;;;;5075923;28;19939;-64
2024/02/25 08:11:44;;;;;;;;;;;3.40;99.90;;;;;;5075426;28;19924;-64
2024/02/25 08:14:16;;;;;;;;;;;3.50;99.90;;;;;;5079494;28;20583;-64
2024/02/25 08:16:48;;;;;;;;;;;3.60;99.90;;;;;;5075591;28;19928;-65
2024/02/25 08:19:19;;;;;;;;;;;3.70;99.90;;;;;;5081973;28;19930;-64
2024/02/25 08:21:51;;;;;;;;;;;3.80;99.90;;;;;;5082246;28;19924;-64
2024/02/25 08:24:23;;;;;;;;;;;3.90;99.90;;;;;;5084637;28;19924;-64
2024/02/25 08:26:55;;;;;;;;;;;3.90;99.90;;;;;;5077914;28;19924;-64
2024/02/25 08:29:21;;;;;;;;;;;4.00;99.90;;;;;;5076251;28;20019;-65
2024/02/25 08:31:53;;;;;;;;;;;4.10;99.90;;;;;;5084124;28;19924;-65
2024/02/25 08:34:25;;;;;;;;;;;4.20;99.90;;;;;;5077634;28;20360;-65
2024/02/25 08:36:52;;;;;;;;;;;4.30;99.90;;;;;;5078441;28;19939;-65
2024/02/25 08:39:19;;;;;;;;;;;4.40;99.90;;;;;;5077459;28;19928;-64
2024/02/25 08:41:51;;;;;;;;;;;4.50;99.90;;;;;;5086990;28;19960;-64
2024/02/25 08:44:23;;;;;;;;;;;4.60;99.90;;;;;;5091272;28;19924;-62
2024/02/25 08:46:54;;;;;;;;;;;4.70;99.90;;;;;;5091702;28;20015;-64
2024/02/25 08:49:26;;;;;;;;;;;4.80;99.90;;;;;;5088233;28;19932;-65
2024/02/25 08:51:58;;;;;;;;;;;4.90;99.90;;;;;;5077822;28;19925;-64
2024/02/25 08:54:30;;;;;;;;;;;5.10;99.90;;;;;;5087852;28;20710;-64
2024/02/25 08:57:02;;;;;;;;;;;5.20;99.90;;;;;;5080055;28;20311;-64
2024/02/25 08:59:34;;;;;;;;;;;5.30;99.90;;;;;;5083291;28;20304;-64
2024/02/25 09:02:05;;;;;;;;;;;5.40;99.90;;;;;;5081576;28;19928;-65
2024/02/25 09:04:38;;;;;;;;;;;5.60;99.90;;;;;;5077856;28;19925;-64
2024/02/25 09:07:10;;;;;;;;;;;5.70;99.90;;;;;;5078562;28;19928;-64
2024/02/25 09:09:42;;;;;;;;;;;5.90;99.90;;;;;;5082140;28;19928;-65
2024/02/25 09:12:13;;;;;;;;;;;6.00;99.90;;;;;;5078622;28;19931;-64
2024/02/25 09:14:45;;;;;;;;;;;6.10;99.90;;;;;;5081789;28;20007;-64
2024/02/25 09:17:17;;;;;;;;;;;6.30;99.90;;;;;;5078639;28;19931;-65
2024/02/25 09:19:44;;;;;;;;;;;6.40;99.90;;;;;;5079115;28;20376;-65
2024/02/25 09:22:15;;;;;;;;;;;6.50;99.90;;;;;;5081995;28;20011;-65
2024/02/25 09:24:47;;;;;;;;;;;6.60;99.90;;;;;;5079644;28;20445;-65
2024/02/25 09:27:19;;;;;;;;;;;6.70;99.90;;;;;;5076661;28;19970;-65
2024/02/25 09:29:51;;;;;;;;;;;6.80;99.90;;;;;;5072474;28;19928;-65
2024/02/25 09:32:24;;;;;;;;;;;6.90;99.90;;;;;;5082593;28;19924;-65
2024/02/25 09:34:50;;;;;;;;;;;7.00;99.90;;;;;;5077935;28;19951;-65
2024/02/25 09:37:22;;;;;;;;;;;7.10;99.90;;;;;;5079715;28;19939;-65
2024/02/25 09:39:54;;;;;;;;;;;7.20;99.90;;;;;;5080453;28;19967;-65
2024/02/25 09:42:26;;;;;;;;;;;7.30;99.90;;;;;;5074559;28;20456;-65
2024/02/25 09:44:58;;;;;;;;;;;7.40;99.90;;;;;;5094870;28;20395;-64
2024/02/25 09:47:25;;;;;;;;;;;7.50;99.90;;;;;;5090968;28;19924;-64
2024/02/25 09:49:57;;;;;;;;;;;7.60;99.90;;;;;;5081146;28;19932;-65
2024/02/25 09:52:29;;;;;;;;;;;7.70;99.90;;;;;;5082807;28;19928;-65
2024/02/25 09:55:01;;;;;;;;;;;7.80;99.90;;;;;;5084068;28;19985;-65
2024/02/25 09:57:33;;;;;;;;;;;7.80;99.90;;;;;;5086740;28;19924;-64
2024/02/25 10:00:06;;;;;;;;;;;7.90;99.90;;;;;;5086869;28;19924;-64
2024/02/25 10:02:37;;;;;;;;;;;8.00;99.90;;;;;;5079018;28;19935;-65
2024/02/25 10:05:12;;;;;;;;;;;8.00;99.90;;;;;;5087481;28;20314;-64
2024/02/25 10:07:44;;;;;;;;;;;8.10;99.90;;;;;;5087798;28;19928;-65
2024/02/25 10:10:15;;;;;;;;;;;8.20;99.90;;;;;;5091864;28;20010;-64
2024/02/25 10:12:42;;;;;;;;;;;8.30;99.90;;;;;;5090718;28;19928;-65
2024/02/25 10:15:14;;;;;;;;;;;8.40;99.90;;;;;;5091407;28;20299;-65
2024/02/25 10:17:46;;;;;;;;;;;8.50;99.90;;;;;;5086638;28;19928;-65
2024/02/25 10:20:12;;;;;;;;;;;8.60;99.90;;;;;;5090313;28;19934;-65
2024/02/25 10:22:39;;;;;;;;;;;8.60;99.90;;;;;;5086164;28;20419;-65
2024/02/25 10:25:07;;;;;;;;;;;8.70;99.90;;;;;;5081737;28;20349;-65
2024/02/25 10:27:39;;;;;;;;;;;8.80;99.90;;;;;;5080377;28;20026;-64
2024/02/25 10:30:12;;;;;;;;;;;9.00;99.90;;;;;;5082144;28;19928;-65
2024/02/25 10:32:39;;;;;;;;;;;9.10;99.90;;;;;;5082959;28;19928;-64
2024/02/25 10:35:08;;;;;;;;;;;9.20;99.90;;;;;;5086186;28;20007;-64
2024/02/25 10:37:35;;;;;;;;;;;9.30;99.90;;;;;;5078740;28;20031;-65
2024/02/25 10:40:06;;;;;;;;;;;9.50;99.90;;;;;;5088711;28;20018;-65
2024/02/25 10:42:43;;;;;;;;;;;9.60;99.90;;;;;;5086517;28;20236;-64
2024/02/25 10:45:16;;;;;;;;;;;9.80;99.90;;;;;;5075741;28;20007;-64
2024/02/25 10:47:49;;;;;;;;;;;9.80;99.90;;;;;;5078655;28;20044;-64
2024/02/25 10:50:21;;;;;;;;;;;9.80;99.90;;;;;;5081129;28;19932;-71
2024/02/25 10:52:54;;;;;;;;;;;9.90;99.90;;;;;;5083133;28;19981;-64
2024/02/25 10:55:27;;;;;;;;;;;9.90;99.90;;;;;;5080371;28;19932;-64
2024/02/25 10:58:00;;;;;;;;;;;10.00;99.90;;;;;;5079121;28;20353;-64
2024/02/25 11:00:32;;;;;;;;;;;10.00;99.90;;;;;;5079595;28;19932;-64
2024/02/25 11:03:04;;;;;;;;;;;10.10;99.90;;;;;;5072435;28;20035;-65
2024/02/25 11:05:36;;;;;;;;;;;10.20;99.90;;;;;;5095931;27;19967;-64
2024/02/25 11:08:11;;;;;;;;;;;10.20;99.90;;;;;;5080551;28;19928;-64
2024/02/25 11:10:44;;;;;;;;;;;10.20;99.90;;;;;;5082809;28;19924;-64
2024/02/25 11:13:21;;;;;;;;;;;10.20;99.90;;;;;;5075385;28;19924;-64
2024/02/25 11:15:48;;;;;;;;;;;10.20;99.90;;;;;;5078711;28;20384;-64
2024/02/25 11:18:26;;;;;;;;;;;10.20;99.90;;;;;;5086169;28;19924;-64
2024/02/25 11:21:04;;;;;;;;;;;10.20;99.90;;;;;;5086027;28;19975;-64
2024/02/25 11:23:40;;;;;;;;;;;10.20;99.90;;;;;;5080557;28;19928;-64
2024/02/25 11:26:35;;;;;;;;;;;10.10;99.90;;;;;;5085113;28;19924;-64
2024/02/25 11:29:33;;;;;;;;;;;10.20;99.90;;;;;;5076668;28;19930;-64
2024/02/25 11:32:06;;;;;;;;;;;10.30;99.90;;;;;;5081670;28;19932;-64
2024/02/25 11:34:38;;;;;;;;;;;10.50;99.90;;;;;;5079184;28;19967;-64
2024/02/25 11:37:06;;;;;;;;;;;10.60;99.90;;;;;;5082751;28;20566;-64
2024/02/25 11:39:37;;;;;;;;;;;10.70;99.90;;;;;;5084285;28;19936;-64
2024/02/25 11:42:09;;;;;;;;;;;10.70;99.90;;;;;;5085650;28;19935;-64
2024/02/25 11:44:41;;;;;;;;;;;10.60;99.90;;;;;;5086200;28;20794;-64
2024/02/25 11:47:12;;;;;;;;;;;10.60;99.90;;;;;;5079338;28;20027;-64
2024/02/25 11:49:44;;;;;;;;;;;10.50;99.90;;;;;;5086740;28;19924;-64
2024/02/25 11:52:16;;;;;;;;;;;10.50;99.90;;;;;;5082381;28;19935;-64
2024/02/25 11:54:47;;;;;;;;;;;10.50;99.90;;;;;;5080403;28;20029;-64
2024/02/25 11:57:19;;;;;;;;;;;10.30;99.90;;;;;;5085744;28;19936;-64
2024/02/25 11:59:51;;;;;;;;;;;10.30;99.90;;;;;;5085243;28;19924;-64
2024/02/25 12:02:23;;;;;;;;;;;10.40;99.90;;;;;;5082484;28;20018;-65
2024/02/25 12:04:55;;;;;;;;;;;10.50;99.90;;;;;;5081255;28;20399;-65
2024/02/25 12:07:27;;;;;;;;;;;10.60;99.90;;;;;;5082955;28;19932;-64
2024/02/25 12:09:59;;;;;;;;;;;10.80;99.90;;;;;;5100436;28;19924;-64
2024/02/25 12:12:31;;;;;;;;;;;10.80;99.90;;;;;;5079630;28;19924;-65
2024/02/25 12:15:03;;;;;;;;;;;10.80;99.90;;;;;;5082474;28;19935;-64
2024/02/25 12:17:34;;;;;;;;;;;11.00;99.90;;;;;;5087659;28;19928;-64
2024/02/25 12:20:07;;;;;;;;;;;11.20;99.90;;;;;;5088540;28;20706;-64
2024/02/25 12:22:34;;;;;;;;;;;11.30;99.90;;;;;;5082730;28;19932;-64
2024/02/25 12:25:07;;;;;;;;;;;11.30;99.90;;;;;;5087404;28;20421;-64
2024/02/25 12:27:38;;;;;;;;;;;11.20;99.90;;;;;;5092173;28;19928;-64
2024/02/25 12:30:13;;;;;;;;;;;11.00;99.90;;;;;;5087883;28;20004;-64
2024/02/25 12:32:45;;;;;;;;;;;11.00;99.90;;;;;;5090632;28;19923;-64
2024/02/25 12:35:19;;;;;;;;;;;11.00;99.90;;;;;;5083865;28;19928;-64
2024/02/25 12:37:51;;;;;;;;;;;11.10;99.90;;;;;;5086685;28;19929;-64
2024/02/25 12:40:23;;;;;;;;;;;11.20;99.90;;;;;;5089014;28;20028;-64
2024/02/25 12:42:57;;;;;;;;;;;11.20;99.90;;;;;;5087124;28;20001;-65
2024/02/25 12:45:24;;;;;;;;;;;11.10;99.90;;;;;;5086498;28;19947;-64
2024/02/25 12:47:51;;;;;;;;;;;11.20;99.90;;;;;;5086799;28;20409;-64
2024/02/25 12:50:23;;;;;;;;;;;11.30;99.90;;;;;;5082984;28;20022;-64
2024/02/25 12:52:55;;;;;;;;;;;11.50;99.90;;;;;;5089125;28;19938;-64
2024/02/25 12:55:27;;;;;;;;;;;11.70;99.90;;;;;;5085505;28;19925;-64
2024/02/25 12:57:59;;;;;;;;;;;11.80;99.90;;;;;;5083707;28;20479;-64
2024/02/25 13:00:33;;;;;;;;;;;11.70;99.90;;;;;;5084366;28;20015;-65
2024/02/25 13:03:00;;;;;;;;;;;11.50;99.90;;;;;;5087724;28;19924;-64
2024/02/25 13:05:26;;;;;;;;;;;11.30;99.90;;;;;;5089025;28;19931;-64
2024/02/25 13:07:53;;;;;;;;;;;11.20;99.90;;;;;;5083842;28;19932;-64
2024/02/25 13:10:26;;;;;;;;;;;11.10;99.90;;;;;;5085490;28;20019;-64
2024/02/25 13:12:57;;;;;;;;;;;10.90;99.90;;;;;;5086902;28;20016;-65
2024/02/25 13:15:29;;;;;;;;;;;10.90;99.90;;;;;;5083415;28;19997;-64
2024/02/25 13:18:01;;;;;;;;;;;11.10;99.90;;;;;;5087816;28;19928;-64
2024/02/25 13:20:32;;;;;;;;;;;11.20;99.90;;;;;;5081702;28;19958;-65
2024/02/25 13:23:04;;;;;;;;;;;11.30;99.90;;;;;;5089204;28;19924;-65
2024/02/25 13:25:36;;;;;;;;;;;11.50;99.90;;;;;;5086377;28;19929;-64
2024/02/25 13:28:09;;;;;;;;;;;11.80;99.90;;;;;;5081179;28;20426;-65
2024/02/25 13:30:36;;;;;;;;;;;12.00;99.90;;;;;;5087579;28;20007;-64
2024/02/25 13:33:09;;;;;;;;;;;12.00;99.90;;;;;;5083276;28;19925;-64
2024/02/25 13:35:41;;;;;;;;;;;12.00;99.90;;;;;;5087287;28;19928;-64
2024/02/25 13:38:13;;;;;;;;;;;12.00;99.90;;;;;;5090482;28;20550;-64
2024/02/25 13:40:45;;;;;;;;;;;11.90;99.90;;;;;;5077020;28;20049;-65
2024/02/25 13:43:17;;;;;;;;;;;11.80;99.90;;;;;;5088724;28;19925;-65
2024/02/25 13:45:50;;;;;;;;;;;11.80;99.90;;;;;;5081957;28;20767;-65
2024/02/25 13:48:22;;;;;;;;;;;11.90;99.90;;;;;;5081781;28;20402;-65
2024/02/25 13:50:49;;;;;;;;;;;11.90;99.90;;;;;;5076597;28;20728;-65
2024/02/25 13:53:22;;;;;;;;;;;11.90;99.90;;;;;;5080759;28;19928;-65
2024/02/25 13:55:54;;;;;;;;;;;11.90;99.90;;;;;;5082989;28;20006;-65
2024/02/25 13:58:26;;;;;;;;;;;12.00;99.90;;;;;;5041689;28;19925;-65
2024/02/25 14:00:53;;;;;;;;;;;12.20;99.90;;;;;;5061678;28;20020;-65
2024/02/25 14:03:24;;;;;;;;;;;12.30;99.90;;;;;;5063421;28;20034;-64
2024/02/25 14:05:56;;;;;;;;;;;12.20;99.90;;;;;;5063058;28;19968;-65
2024/02/25 14:08:23;;;;;;;;;;;12.20;99.90;;;;;;5063894;28;19933;-64
2024/02/25 14:10:55;;;;;;;;;;;12.30;99.90;;;;;;5063424;28;20403;-65
2024/02/25 14:13:27;;;;;;;;;;;12.40;99.90;;;;;;5064248;28;20015;-65
2024/02/25 14:16:00;;;;;;;;;;;12.40;99.90;;;;;;5062955;28;20011;-65
2024/02/25 14:18:32;;;;;;;;;;;12.50;99.90;;;;;;5064309;28;19934;-65
2024/02/25 14:21:04;;;;;;;;;;;12.40;99.90;;;;;;5061273;28;19929;-65
2024/02/25 14:23:36;;;;;;;;;;;12.40;99.90;;;;;;5069245;28;19928;-65
2024/02/25 14:26:08;;;;;;;;;;;12.20;99.90;;;;;;5067581;28;19929;-65
2024/02/25 14:28:40;;;;;;;;;;;12.30;99.90;;;;;;5054784;28;19925;-65
2024/02/25 14:31:11;;;;;;;;;;;12.40;99.90;;;;;;5061932;28;19929;-65
2024/02/25 14:33:40;;;;;;;;;;;12.50;99.90;;;;;;5062371;28;19929;-65
2024/02/25 14:36:11;;;;;;;;;;;12.70;99.90;;;;;;5063971;28;19924;-65
2024/02/25 14:38:43;;;;;;;;;;;12.80;99.90;;;;;;5064660;28;19929;-65
2024/02/25 14:41:16;;;;;;;;;;;13.00;99.90;;;;;;5062156;28;19931;-65
2024/02/25 14:43:43;;;;;;;;;;;12.90;99.90;;;;;;5062429;28;19940;-65
2024/02/25 14:46:14;;;;;;;;;;;13.00;99.90;;;;;;5060605;28;19931;-65
2024/02/25 14:48:41;;;;;;;;;;;13.10;99.70;;;;;;5068165;28;20376;-65
2024/02/25 14:51:13;;;;;;;;;;;13.10;99.90;;;;;;5063072;28;19965;-65